Time;durP1;ratioP1;P1;durP2;ratioP2;P2;SDS_P1;SDS_P2;PMS_P1;PMS_P2;Temp;Humidity;BMP_temperature;BMP_pressure;BME280_temperature;BME280_humidity;BME280_pressure;Samples;Min_cycle;Max_cycle;Signal;HPM_P1;HPM_P2
2022/05/06 00:00:28;;;;;;;;;;;;;;;12.68;76.64;100813.23;106961;1273;22700;-78
2022/05/06 00:03:07;;;;;;;;;;;;;;;12.67;76.60;100816.94;106937;1273;26759;-79
2022/05/06 00:05:37;;;;;;;;;;;;;;;12.64;76.64;100816.11;107028;1273;22611;-79
2022/05/06 00:08:07;;;;;;;;;;;;;;;12.59;76.83;100818.15;107457;1273;24218;-79
2022/05/06 00:10:36;;;;;;;;;;;;;;;12.53;77.05;100817.83;107382;1273;25421;-79
2022/05/06 00:13:06;;;;;;;;;;;;;;;12.46;76.99;100818.45;106929;1273;22561;-78
2022/05/06 00:15:35;;;;;;;;;;;;;;;12.37;77.32;100824.82;107007;1273;22521;-78
2022/05/06 00:18:05;;;;;;;;;;;;;;;12.32;76.97;100826.04;106976;1273;22568;-78
2022/05/06 00:20:35;;;;;;;;;;;;;;;12.32;76.70;100827.16;106648;1273;22666;-78
2022/05/06 00:23:04;;;;;;;;;;;;;;;12.34;76.42;100831.16;106570;1273;25426;-78
2022/05/06 00:25:35;;;;;;;;;;;;;;;12.33;76.34;100831.35;106790;1273;24285;-78
2022/05/06 00:28:04;;;;;;;;;;;;;;;12.33;76.73;100826.10;106799;1273;24177;-79
2022/05/06 00:30:34;;;;;;;;;;;;;;;12.32;77.27;100830.14;106701;1273;22579;-78
2022/05/06 00:33:05;;;;;;;;;;;;;;;12.29;77.49;100828.77;106636;1273;22550;-78
2022/05/06 00:35:34;;;;;;;;;;;;;;;12.21;78.23;100825.33;106763;1273;22634;-78
2022/05/06 00:38:04;;;;;;;;;;;;;;;12.15;78.08;100824.31;106509;1273;26736;-78
2022/05/06 00:40:33;;;;;;;;;;;;;;;12.16;77.96;100824.62;106696;1273;22571;-78
2022/05/06 00:43:03;;;;;;;;;;;;;;;12.18;77.88;100823.77;107266;1273;25372;-79
2022/05/06 00:45:37;;;;;;;;;;;;;;;12.18;78.12;100828.59;106793;1273;23044;-79
2022/05/06 00:48:07;;;;;;;;;;;;;;;12.09;78.46;100829.73;106865;1273;24428;-78
2022/05/06 00:50:38;;;;;;;;;;;;;;;12.03;78.76;100835.58;106977;1273;25360;-78
2022/05/06 00:53:08;;;;;;;;;;;;;;;11.98;79.01;100838.31;106994;1273;23984;-78
2022/05/06 00:55:38;;;;;;;;;;;;;;;11.94;79.10;100841.77;106996;1273;22526;-79
2022/05/06 00:58:07;;;;;;;;;;;;;;;11.93;78.94;100841.04;107060;1273;24973;-78
2022/05/06 01:00:36;;;;;;;;;;;;;;;11.94;78.59;100842.17;106996;1273;22730;-79
2022/05/06 01:03:06;;;;;;;;;;;;;;;11.96;78.59;100843.11;107023;1273;22647;-77
2022/05/06 01:05:38;;;;;;;;;;;;;;;11.99;78.36;100845.71;107017;1273;24228;-78
2022/05/06 01:08:09;;;;;;;;;;;;;;;12.00;78.10;100848.38;106932;1273;22662;-80
2022/05/06 01:10:38;;;;;;;;;;;;;;;12.01;77.97;100850.29;106997;1273;22760;-78
2022/05/06 01:13:08;;;;;;;;;;;;;;;12.01;77.41;100852.48;106893;1273;22541;-78
2022/05/06 01:15:38;;;;;;;;;;;;;;;12.00;77.33;100849.10;106931;1273;23720;-78
2022/05/06 01:18:10;;;;;;;;;;;;;;;12.00;77.10;100848.23;106928;1273;24915;-78
2022/05/06 01:20:43;;;;;;;;;;;;;;;12.00;76.83;100844.38;107263;1273;23327;-77
2022/05/06 01:23:13;;;;;;;;;;;;;;;11.99;77.20;100846.79;106583;1273;22542;-78
2022/05/06 01:25:43;;;;;;;;;;;;;;;11.99;77.31;100851.61;106934;1273;22528;-78
2022/05/06 01:28:14;;;;;;;;;;;;;;;11.98;77.63;100856.38;106927;1273;22642;-78
2022/05/06 01:30:45;;;;;;;;;;;;;;;11.97;77.93;100852.04;106989;1273;24869;-78
2022/05/06 01:33:15;;;;;;;;;;;;;;;11.98;77.75;100849.05;107012;1273;24217;-78
2022/05/06 01:35:45;;;;;;;;;;;;;;;11.99;77.87;100847.71;106758;1273;22535;-78
2022/05/06 01:38:17;;;;;;;;;;;;;;;12.00;77.75;100845.34;106976;1273;22734;-78
2022/05/06 01:40:50;;;;;;;;;;;;;;;12.01;77.60;100845.51;106928;1273;22512;-78
2022/05/06 01:43:22;;;;;;;;;;;;;;;12.02;77.88;100840.44;106590;1273;25290;-79
2022/05/06 01:45:52;;;;;;;;;;;;;;;12.00;78.52;100836.89;106597;1273;22665;-79
2022/05/06 01:48:21;;;;;;;;;;;;;;;11.96;78.85;100840.71;106890;1273;22836;-78
2022/05/06 01:50:52;;;;;;;;;;;;;;;11.92;79.14;100844.07;106939;1273;24336;-78
2022/05/06 01:53:21;;;;;;;;;;;;;;;11.82;79.51;100849.15;107305;1273;25018;-78
2022/05/06 01:55:51;;;;;;;;;;;;;;;11.72;79.59;100849.15;106962;1273;22700;-78
2022/05/06 01:58:21;;;;;;;;;;;;;;;11.62;79.77;100846.89;107083;1273;22546;-78
2022/05/06 02:00:51;;;;;;;;;;;;;;;11.54;80.23;100846.70;106963;1273;22587;-78
2022/05/06 02:06:07;;;;;;;;;;;;;;;11.36;80.05;100850.98;106789;1273;22556;-78
2022/05/06 02:08:37;;;;;;;;;;;;;;;11.30;80.15;100855.19;106926;1273;26376;-78
2022/05/06 02:11:07;;;;;;;;;;;;;;;11.23;80.56;100859.18;106473;1263;81545;-53
2022/05/06 02:13:37;;;;;;;;;;;;;;;11.19;81.27;100858.73;106060;1271;23010;-53
2022/05/06 02:16:09;;;;;;;;;;;;;;;11.17;81.62;100863.35;105941;1271;22488;-53
2022/05/06 02:18:41;;;;;;;;;;;;;;;11.15;81.80;100866.27;105790;1271;22707;-55
2022/05/06 02:21:14;;;;;;;;;;;;;;;11.09;81.72;100869.48;105857;1273;22616;-52
2022/05/06 02:23:44;;;;;;;;;;;;;;;11.04;81.53;100870.85;106054;1272;25226;-53
2022/05/06 02:26:13;;;;;;;;;;;;;;;11.01;81.43;100871.93;105582;1273;22577;-52
2022/05/06 02:28:43;;;;;;;;;;;;;;;10.98;81.58;100873.90;105654;1271;24246;-55
2022/05/06 02:34:00;;;;;;;;;;;;;;;10.94;81.91;100878.62;105820;1274;25517;-52
2022/05/06 02:36:30;;;;;;;;;;;;;;;10.95;81.95;100876.42;105956;1273;24426;-53
2022/05/06 02:39:00;;;;;;;;;;;;;;;10.97;82.00;100882.55;105949;1273;24313;-52
2022/05/06 02:41:30;;;;;;;;;;;;;;;11.00;81.92;100882.13;105903;1273;22533;-53
2022/05/06 02:43:59;;;;;;;;;;;;;;;11.01;82.25;100881.96;105884;1273;22517;-51
2022/05/06 02:46:29;;;;;;;;;;;;;;;11.00;82.41;100879.23;106005;1272;25350;-53
2022/05/06 02:48:58;;;;;;;;;;;;;;;10.99;81.95;100879.66;105641;1273;22535;-53
2022/05/06 02:51:30;;;;;;;;;;;;;;;11.00;82.06;100879.64;105834;1273;22629;-52
2022/05/06 02:53:59;;;;;;;;;;;;;;;11.01;81.97;100882.00;105879;1273;24372;-51
2022/05/06 02:56:30;;;;;;;;;;;;;;;11.00;82.00;100887.31;105798;1273;25295;-50
2022/05/06 02:59:00;;;;;;;;;;;;;;;10.97;81.85;100888.30;105808;1273;24388;-51
2022/05/06 03:01:29;;;;;;;;;;;;;;;10.98;81.67;100891.29;105630;1273;22534;-53
2022/05/06 03:03:59;;;;;;;;;;;;;;;10.99;81.53;100891.74;105672;1273;25300;-55
2022/05/06 03:06:29;;;;;;;;;;;;;;;10.99;81.49;100895.48;105672;1273;22594;-50
2022/05/06 03:08:59;;;;;;;;;;;;;;;11.00;81.08;100892.39;105782;1273;22532;-52
2022/05/06 03:11:29;;;;;;;;;;;;;;;11.02;81.05;100895.09;105840;1273;22533;-50
2022/05/06 03:13:59;;;;;;;;;;;;;;;11.02;81.68;100895.02;105647;1273;22592;-50
2022/05/06 03:16:29;;;;;;;;;;;;;;;10.99;81.41;100897.90;105854;1273;22588;-52
2022/05/06 03:19:00;;;;;;;;;;;;;;;10.96;80.98;100901.59;105838;1273;22516;-51
2022/05/06 03:21:30;;;;;;;;;;;;;;;10.96;81.47;100901.37;105898;1273;22667;-51
2022/05/06 03:24:03;;;;;;;;;;;;;;;10.93;82.18;100903.07;105751;1273;22550;-54
2022/05/06 03:26:33;;;;;;;;;;;;;;;10.93;82.01;100902.95;105821;1273;24307;-53
2022/05/06 03:29:04;;;;;;;;;;;;;;;10.93;81.62;100906.42;105636;1273;22518;-52
2022/05/06 03:31:34;;;;;;;;;;;;;;;10.94;81.71;100900.75;105650;1273;22512;-50
2022/05/06 03:34:06;;;;;;;;;;;;;;;10.94;81.39;100900.88;105893;1273;22571;-53
2022/05/06 03:36:36;;;;;;;;;;;;;;;10.95;81.29;100901.25;105966;1273;23091;-49
2022/05/06 03:39:06;;;;;;;;;;;;;;;10.96;80.78;100895.95;105849;1273;26018;-53
2022/05/06 03:41:38;;;;;;;;;;;;;;;10.96;80.64;100898.34;105690;1273;22527;-50
2022/05/06 03:44:09;;;;;;;;;;;;;;;10.97;80.95;100902.27;105840;1273;25226;-52
2022/05/06 03:46:39;;;;;;;;;;;;;;;10.97;81.24;100909.63;105708;1273;24289;-53
2022/05/06 03:49:10;;;;;;;;;;;;;;;10.95;81.18;100909.56;105843;1273;25221;-54
2022/05/06 03:51:40;;;;;;;;;;;;;;;10.91;81.36;100916.04;105758;1273;25295;-53
2022/05/06 03:54:10;;;;;;;;;;;;;;;10.85;82.11;100925.23;105666;1273;22519;-50
2022/05/06 03:56:40;;;;;;;;;;;;;;;10.74;82.35;100932.90;105799;1273;22632;-50
2022/05/06 03:59:10;;;;;;;;;;;;;;;10.62;82.50;100939.54;105788;1273;25519;-54
2022/05/06 04:01:40;;;;;;;;;;;;;;;10.57;82.52;100940.67;105854;1273;22596;-51
2022/05/06 04:04:10;;;;;;;;;;;;;;;10.59;82.43;100945.09;105695;1271;25217;-54
2022/05/06 04:06:42;;;;;;;;;;;;;;;10.62;82.29;100950.08;105760;1273;22717;-52
2022/05/06 04:09:12;;;;;;;;;;;;;;;10.64;81.96;100955.34;105794;1273;22578;-50
2022/05/06 04:11:41;;;;;;;;;;;;;;;10.68;81.76;100957.70;105790;1271;22638;-53
2022/05/06 04:14:12;;;;;;;;;;;;;;;10.73;81.74;100959.73;105695;1273;23838;-52
2022/05/06 04:16:42;;;;;;;;;;;;;;;10.79;81.61;100961.58;105803;1273;22549;-54
2022/05/06 04:19:12;;;;;;;;;;;;;;;10.82;81.88;100965.33;105670;1273;25407;-54
2022/05/06 04:24:29;;;;;;;;;;;;;;;10.92;82.22;100971.39;105742;1273;25216;-52
2022/05/06 04:27:01;;;;;;;;;;;;;;;10.97;82.62;100973.56;105718;1273;25316;-54
2022/05/06 04:29:31;;;;;;;;;;;;;;;10.99;83.03;100973.29;105677;1273;22505;-53
2022/05/06 04:32:02;;;;;;;;;;;;;;;11.01;83.17;100973.70;105801;1273;25456;-50
2022/05/06 04:34:53;;;;;;;;;;;;;;;11.03;83.67;100971.92;105915;1273;22614;-55
2022/05/06 04:37:30;;;;;;;;;;;;;;;11.04;83.87;100972.77;107163;1273;22638;-53
2022/05/06 04:40:01;;;;;;;;;;;;;;;11.07;84.11;100975.45;105656;1273;22638;-53
2022/05/06 04:42:31;;;;;;;;;;;;;;;11.08;84.28;100978.66;105710;1273;22601;-49
2022/05/06 04:45:01;;;;;;;;;;;;;;;11.08;84.38;100982.18;109055;1272;23203;-51
2022/05/06 04:47:30;;;;;;;;;;;;;;;11.08;84.45;100985.94;106034;1272;24483;-53
2022/05/06 04:50:00;;;;;;;;;;;;;;;11.07;84.49;100990.84;106044;1273;25328;-53
2022/05/06 04:52:30;;;;;;;;;;;;;;;11.07;84.91;100994.77;106036;1273;24206;-53
2022/05/06 04:55:00;;;;;;;;;;;;;;;11.08;85.16;100998.39;105838;1273;25464;-53
2022/05/06 04:57:30;;;;;;;;;;;;;;;11.09;85.40;101000.11;105775;1273;24354;-52
2022/05/06 04:59:59;;;;;;;;;;;;;;;11.12;85.39;100998.52;105737;1273;22761;-50
2022/05/06 05:02:29;;;;;;;;;;;;;;;11.15;85.69;100992.43;105943;1273;25342;-53
2022/05/06 05:04:59;;;;;;;;;;;;;;;11.19;85.60;100993.92;105940;1273;22537;-52
2022/05/06 05:07:28;;;;;;;;;;;;;;;11.23;85.95;100996.45;106070;1273;25298;-53
2022/05/06 05:09:58;;;;;;;;;;;;;;;11.28;86.25;101000.39;105782;1273;22665;-51
2022/05/06 05:12:28;;;;;;;;;;;;;;;11.33;86.60;101001.94;105921;1273;22689;-50
2022/05/06 05:14:58;;;;;;;;;;;;;;;11.37;86.58;101004.77;105868;1273;25295;-50
2022/05/06 05:17:27;;;;;;;;;;;;;;;11.43;86.83;101003.17;105667;1273;22512;-52
2022/05/06 05:19:57;;;;;;;;;;;;;;;11.47;86.99;101013.94;105818;1273;24218;-52
2022/05/06 05:22:27;;;;;;;;;;;;;;;11.51;86.84;101014.73;105753;1272;24361;-53
2022/05/06 05:24:56;;;;;;;;;;;;;;;11.55;86.67;101014.92;105835;1273;22528;-53
2022/05/06 05:27:26;;;;;;;;;;;;;;;11.59;86.75;101017.46;105956;1273;24422;-55
2022/05/06 05:29:56;;;;;;;;;;;;;;;11.62;86.46;101017.73;105793;1273;22689;-50
2022/05/06 05:32:27;;;;;;;;;;;;;;;11.65;86.16;101020.80;105781;1273;22544;-50
2022/05/06 05:34:57;;;;;;;;;;;;;;;11.68;86.52;101023.88;106058;1273;23509;-50
2022/05/06 05:37:26;;;;;;;;;;;;;;;11.73;86.38;101020.40;106182;1273;24298;-49
2022/05/06 05:39:56;;;;;;;;;;;;;;;11.78;86.35;101017.14;105893;1273;25235;-50
2022/05/06 05:42:28;;;;;;;;;;;;;;;11.82;86.29;101019.52;106074;1273;25305;-50
2022/05/06 05:50:36;;;;;;;;;;;;;;;11.92;85.92;101029.32;105718;1273;22522;-52
2022/05/06 05:53:06;;;;;;;;;;;;;;;11.97;85.59;101028.52;105893;1273;22531;-55
2022/05/06 05:55:36;;;;;;;;;;;;;;;12.02;84.97;101030.08;105842;1273;25389;-51
2022/05/06 05:58:06;;;;;;;;;;;;;;;12.07;84.74;101036.56;105973;1273;22690;-50
2022/05/06 06:00:36;;;;;;;;;;;;;;;12.09;84.40;101036.53;105976;1273;22547;-52
2022/05/06 06:03:05;;;;;;;;;;;;;;;12.14;84.22;101038.78;105892;1273;22520;-54
2022/05/06 06:05:37;;;;;;;;;;;;;;;12.19;83.75;101038.90;105845;1273;22580;-51
2022/05/06 06:08:08;;;;;;;;;;;;;;;12.22;83.28;101039.08;105937;1273;22688;-51
2022/05/06 06:10:38;;;;;;;;;;;;;;;12.23;83.03;101041.19;105752;1273;24253;-50
2022/05/06 06:13:09;;;;;;;;;;;;;;;12.24;82.17;101040.66;105652;1273;24576;-54
2022/05/06 06:15:39;;;;;;;;;;;;;;;12.27;82.24;101040.77;106094;1273;22684;-57
2022/05/06 06:18:10;;;;;;;;;;;;;;;12.32;82.22;101038.05;105824;1272;24274;-54
2022/05/06 06:20:40;;;;;;;;;;;;;;;12.35;82.00;101042.36;106036;1273;22583;-52
2022/05/06 06:23:10;;;;;;;;;;;;;;;12.39;81.78;101040.83;106018;1273;22531;-48
2022/05/06 06:25:43;;;;;;;;;;;;;;;12.44;81.62;101039.71;105809;1273;24415;-57
2022/05/06 06:28:13;;;;;;;;;;;;;;;12.48;81.10;101037.58;105690;1273;24299;-50
2022/05/06 06:30:43;;;;;;;;;;;;;;;12.52;80.65;101036.66;105729;1272;22540;-55
2022/05/06 06:33:14;;;;;;;;;;;;;;;12.56;80.08;101039.52;105696;1273;22634;-55
2022/05/06 06:35:44;;;;;;;;;;;;;;;12.62;80.12;101037.45;105858;1273;23018;-57
2022/05/06 06:38:14;;;;;;;;;;;;;;;12.68;79.66;101038.27;105827;1273;23134;-54
2022/05/06 06:40:45;;;;;;;;;;;;;;;12.74;79.50;101035.03;105892;1273;24316;-54
2022/05/06 06:43:14;;;;;;;;;;;;;;;12.78;78.79;101035.54;105693;1273;22468;-52
2022/05/06 06:45:44;;;;;;;;;;;;;;;12.82;78.44;101034.62;105740;1273;22592;-52
2022/05/06 06:48:14;;;;;;;;;;;;;;;12.86;77.21;101031.07;105989;1273;22519;-52
2022/05/06 06:50:44;;;;;;;;;;;;;;;12.90;77.55;101035.01;105830;1273;25228;-50
2022/05/06 06:53:16;;;;;;;;;;;;;;;12.97;76.54;101038.61;105799;1273;24370;-52
2022/05/06 06:55:46;;;;;;;;;;;;;;;13.03;76.54;101042.11;105801;1273;24428;-49
2022/05/06 06:58:16;;;;;;;;;;;;;;;13.11;76.63;101042.85;105829;1273;22531;-51
2022/05/06 07:00:46;;;;;;;;;;;;;;;13.17;76.27;101046.25;105912;1273;24332;-53
2022/05/06 07:03:16;;;;;;;;;;;;;;;13.27;75.98;101046.16;106008;1273;24938;-50
2022/05/06 07:14:04;;;;;;;;;;;;;;;13.73;74.22;101045.15;105768;1273;22777;-54
2022/05/06 07:16:35;;;;;;;;;;;;;;;13.85;73.52;101049.52;105904;1273;25456;-52
2022/05/06 07:19:05;;;;;;;;;;;;;;;13.97;72.65;101057.27;105948;1273;22690;-54
2022/05/06 07:21:38;;;;;;;;;;;;;;;14.11;72.92;101057.33;105994;1273;22588;-56
2022/05/06 07:24:09;;;;;;;;;;;;;;;14.22;71.24;101055.77;105791;1273;22518;-51
2022/05/06 07:26:39;;;;;;;;;;;;;;;14.29;70.79;101055.65;105887;1273;26234;-51
2022/05/06 07:29:08;;;;;;;;;;;;;;;14.34;70.08;101061.07;105809;1271;24605;-50
2022/05/06 07:31:38;;;;;;;;;;;;;;;14.35;69.87;101059.71;106091;1273;24499;-53
2022/05/06 07:34:08;;;;;;;;;;;;;;;14.39;70.40;101060.64;105896;1272;24293;-53
2022/05/06 07:36:41;;;;;;;;;;;;;;;14.46;69.96;101063.35;105815;1273;24302;-55
2022/05/06 07:39:11;;;;;;;;;;;;;;;14.52;69.68;101066.85;105827;1273;22593;-53
2022/05/06 07:41:41;;;;;;;;;;;;;;;14.57;69.14;101069.07;105937;1272;22513;-50
2022/05/06 07:44:11;;;;;;;;;;;;;;;14.60;68.36;101069.72;105909;1273;22508;-50
2022/05/06 07:46:43;;;;;;;;;;;;;;;14.63;68.13;101065.31;106007;1273;22531;-52
2022/05/06 07:49:12;;;;;;;;;;;;;;;14.66;68.41;101066.98;105913;1273;24250;-51
2022/05/06 07:51:43;;;;;;;;;;;;;;;14.67;68.03;101070.03;105879;1273;25379;-51
2022/05/06 07:54:13;;;;;;;;;;;;;;;14.70;68.02;101069.62;105954;1272;24269;-51
2022/05/06 07:56:44;;;;;;;;;;;;;;;14.76;68.20;101073.08;106059;1273;24345;-55
2022/05/06 07:59:14;;;;;;;;;;;;;;;14.83;68.26;101076.83;105884;1273;22675;-51
2022/05/06 08:04:34;;;;;;;;;;;;;;;15.00;67.41;101081.56;105882;1273;22856;-50
2022/05/06 08:07:05;;;;;;;;;;;;;;;15.05;67.79;101073.77;105831;1272;22509;-51
2022/05/06 08:09:35;;;;;;;;;;;;;;;15.13;67.56;101070.88;105824;1273;22490;-54
2022/05/06 08:12:07;;;;;;;;;;;;;;;15.22;67.03;101076.40;106555;1262;22506;-63
2022/05/06 08:14:38;;;;;;;;;;;;;;;15.28;66.57;101081.91;106480;1270;24369;-63
2022/05/06 08:17:08;;;;;;;;;;;;;;;15.33;66.01;101082.95;106031;1270;22589;-63
2022/05/06 08:19:38;;;;;;;;;;;;;;;15.36;65.63;101079.25;105892;1271;22534;-62
2022/05/06 08:22:08;;;;;;;;;;;;;;;15.42;65.31;101085.12;106083;1270;25405;-63
2022/05/06 08:24:38;;;;;;;;;;;;;;;15.47;65.08;101086.07;105871;1270;25307;-63
2022/05/06 08:27:10;;;;;;;;;;;;;;;15.49;65.19;101086.81;105958;1270;24445;-63
2022/05/06 08:29:42;;;;;;;;;;;;;;;15.54;65.12;101087.95;105942;1270;22656;-63
2022/05/06 08:32:11;;;;;;;;;;;;;;;15.59;65.25;101088.42;106015;1270;22508;-62
2022/05/06 08:34:43;;;;;;;;;;;;;;;15.65;64.48;101090.99;105924;1271;25169;-63
2022/05/06 08:37:14;;;;;;;;;;;;;;;15.63;63.53;101087.25;105861;1271;25409;-64
2022/05/06 08:39:44;;;;;;;;;;;;;;;15.58;63.13;101090.86;106093;1270;23938;-63
2022/05/06 08:42:15;;;;;;;;;;;;;;;15.55;63.46;101092.56;106010;1270;22509;-63
2022/05/06 08:53:10;;;;;;;;;;;;;;;15.60;63.07;101094.52;105850;1271;24319;-62
2022/05/06 08:55:41;;;;;;;;;;;;;;;15.63;62.53;101099.78;105778;1270;22606;-63
2022/05/06 08:58:11;;;;;;;;;;;;;;;15.67;62.32;101095.16;105846;1270;22529;-63
2022/05/06 09:00:41;;;;;;;;;;;;;;;15.69;62.16;101099.54;106255;1271;25566;-64
2022/05/06 09:03:13;;;;;;;;;;;;;;;15.72;61.80;101102.45;105979;1270;24322;-63
2022/05/06 09:05:53;;;;;;;;;;;;;;;15.74;61.21;101107.08;105847;1271;24085;-64
2022/05/06 09:08:23;;;;;;;;;;;;;;;15.75;60.99;101110.88;106032;1271;22761;-63
2022/05/06 09:11:04;;;;;;;;;;;;;;;15.79;60.62;101111.02;106087;1270;22524;-63
2022/05/06 09:13:33;;;;;;;;;;;;;;;15.87;60.65;101107.12;106086;1271;22585;-64
2022/05/06 09:16:42;;;;;;;;;;;;;;;15.90;59.83;101104.59;105852;1271;25541;-63
2022/05/06 09:19:20;;;;;;;;;;;;;;;15.88;58.65;101108.30;106081;1271;24282;-64
2022/05/06 09:22:04;;;;;;;;;;;;;;;15.88;59.02;101105.19;105925;1271;25526;-63
2022/05/06 09:24:35;;;;;;;;;;;;;;;15.82;58.39;101107.17;105898;1271;25543;-64
2022/05/06 09:27:06;;;;;;;;;;;;;;;15.78;59.04;101106.25;106102;1271;22646;-63
2022/05/06 09:29:37;;;;;;;;;;;;;;;15.82;59.63;101104.91;105920;1271;25271;-63
2022/05/06 09:32:21;;;;;;;;;;;;;;;15.87;59.09;101101.80;106040;1271;24475;-63
2022/05/06 09:34:52;;;;;;;;;;;;;;;15.95;58.90;101092.21;106140;1271;23991;-63
2022/05/06 09:37:32;;;;;;;;;;;;;;;16.00;58.18;101088.62;105904;1270;23316;-63
2022/05/06 09:40:06;;;;;;;;;;;;;;;16.01;58.23;101089.16;106169;1270;23190;-64
2022/05/06 09:42:45;;;;;;;;;;;;;;;16.01;57.58;101087.42;106020;1271;22614;-63
2022/05/06 09:45:28;;;;;;;;;;;;;;;15.98;57.03;101087.11;102013;1271;5489346;-63
2022/05/06 09:48:00;;;;;;;;;;;;;;;15.97;57.47;101081.23;106027;1271;22659;-64
2022/05/06 09:50:34;;;;;;;;;;;;;;;16.02;57.78;101077.13;106007;1271;22451;-64
2022/05/06 09:53:05;;;;;;;;;;;;;;;16.08;57.88;101079.65;106129;1270;25360;-63
2022/05/06 09:55:36;;;;;;;;;;;;;;;16.08;57.93;101072.17;106130;1271;22669;-63
2022/05/06 09:58:08;;;;;;;;;;;;;;;16.08;56.23;101072.69;106095;1271;22597;-63
2022/05/06 10:00:38;;;;;;;;;;;;;;;16.14;57.12;101068.55;106060;1271;22659;-63
2022/05/06 10:03:09;;;;;;;;;;;;;;;16.21;55.65;101068.61;105880;1271;25543;-63
2022/05/06 10:05:41;;;;;;;;;;;;;;;16.29;55.28;101069.29;106055;1271;26075;-64
2022/05/06 10:08:13;;;;;;;;;;;;;;;16.43;55.41;101071.11;106099;1270;24203;-63
2022/05/06 10:10:49;;;;;;;;;;;;;;;16.54;55.67;101074.09;105951;1271;22670;-63
2022/05/06 10:13:22;;;;;;;;;;;;;;;16.60;54.39;101068.86;105865;1270;23062;-63
2022/05/06 10:15:53;;;;;;;;;;;;;;;16.64;54.70;101069.00;106105;1271;24228;-64
2022/05/06 10:18:35;;;;;;;;;;;;;;;16.68;53.73;101073.39;106095;1270;25503;-63
2022/05/06 10:21:05;;;;;;;;;;;;;;;16.66;53.50;101071.36;105856;1271;25567;-63
2022/05/06 10:23:46;;;;;;;;;;;;;;;16.68;53.88;101071.12;105945;1270;22581;-62
2022/05/06 10:26:33;;;;;;;;;;;;;;;16.70;53.06;101064.17;106110;1270;25234;-63
2022/05/06 10:34:54;;;;;;;;;;;;;;;16.86;52.23;101061.35;105861;1271;22529;-63
2022/05/06 10:37:26;;;;;;;;;;;;;;;16.94;52.86;101063.83;105697;1271;25468;-63
2022/05/06 10:39:56;;;;;;;;;;;;;;;16.93;51.99;101064.63;105984;1271;25391;-63
2022/05/06 10:42:34;;;;;;;;;;;;;;;16.92;52.37;101063.80;105940;1270;22549;-64
2022/05/06 10:45:22;;;;;;;;;;;;;;;16.95;51.93;101063.11;106054;1271;24324;-63
2022/05/06 10:47:53;;;;;;;;;;;;;;;16.93;51.46;101064.64;105993;1270;22528;-63
2022/05/06 10:50:29;;;;;;;;;;;;;;;16.95;52.22;101063.32;106049;1270;25510;-63
2022/05/06 10:53:01;;;;;;;;;;;;;;;17.04;51.89;101062.28;106009;1271;22527;-64
2022/05/06 10:55:30;;;;;;;;;;;;;;;17.14;52.13;101063.05;105915;1271;22525;-64
2022/05/06 10:58:04;;;;;;;;;;;;;;;17.20;51.14;101064.06;106011;1271;26585;-63
2022/05/06 11:00:37;;;;;;;;;;;;;;;17.16;51.18;101059.18;105858;1271;25236;-64
2022/05/06 11:03:07;;;;;;;;;;;;;;;17.18;51.36;101063.02;105845;1271;23423;-63
2022/05/06 11:05:38;;;;;;;;;;;;;;;17.24;51.35;101064.81;105927;1271;22532;-63
2022/05/06 11:08:09;;;;;;;;;;;;;;;17.30;50.48;101066.13;105807;1271;23990;-63
2022/05/06 11:10:38;;;;;;;;;;;;;;;17.31;50.46;101064.13;105803;1271;25300;-63
2022/05/06 11:13:09;;;;;;;;;;;;;;;17.33;50.05;101058.48;105803;1271;24552;-63
2022/05/06 11:15:39;;;;;;;;;;;;;;;17.32;50.14;101054.23;105868;1271;22774;-63
2022/05/06 11:18:10;;;;;;;;;;;;;;;17.38;50.89;101049.16;105765;1271;24316;-63
2022/05/06 11:20:41;;;;;;;;;;;;;;;17.44;50.45;101049.49;105829;1271;25634;-63
2022/05/06 11:23:13;;;;;;;;;;;;;;;17.49;49.78;101041.80;105830;1271;25405;-62
2022/05/06 11:25:46;;;;;;;;;;;;;;;17.50;49.89;101030.10;105785;1271;22528;-62
2022/05/06 11:28:20;;;;;;;;;;;;;;;17.58;50.43;101032.85;105788;1271;22638;-63
2022/05/06 11:30:50;;;;;;;;;;;;;;;17.67;50.04;101031.38;105710;1272;25356;-64
2022/05/06 11:33:24;;;;;;;;;;;;;;;17.76;49.75;101029.26;105918;1271;22512;-63
2022/05/06 11:36:01;;;;;;;;;;;;;;;17.83;49.31;101028.54;105808;1271;25311;-64
2022/05/06 11:38:32;;;;;;;;;;;;;;;17.89;49.53;101034.36;105838;1271;26237;-64
2022/05/06 11:41:11;;;;;;;;;;;;;;;17.89;48.82;101024.20;105841;1271;22569;-64
2022/05/06 11:43:41;;;;;;;;;;;;;;;17.87;48.73;101020.19;105974;1271;22594;-64
2022/05/06 11:49:04;;;;;;;;;;;;;;;17.97;48.58;101029.80;105689;1271;22509;-64
2022/05/06 11:51:35;;;;;;;;;;;;;;;18.02;48.48;101023.65;105988;1271;22701;-63
2022/05/06 11:54:05;;;;;;;;;;;;;;;18.08;47.71;101021.50;106038;1271;22534;-63
2022/05/06 11:56:36;;;;;;;;;;;;;;;18.12;47.82;101023.03;105867;1271;24434;-63
2022/05/06 11:59:06;;;;;;;;;;;;;;;18.18;47.25;101022.78;106217;1270;22591;-63
2022/05/06 12:01:37;;;;;;;;;;;;;;;18.22;47.38;101016.47;106089;1270;25048;-63
2022/05/06 12:04:07;;;;;;;;;;;;;;;18.24;47.22;101013.95;105991;1271;22505;-64
2022/05/06 12:06:38;;;;;;;;;;;;;;;18.23;47.23;101020.02;105864;1271;22533;-63
2022/05/06 12:09:12;;;;;;;;;;;;;;;18.23;47.35;101021.70;105815;1270;22715;-64
2022/05/06 12:11:43;;;;;;;;;;;;;;;18.27;47.10;101025.26;105949;1271;22538;-64
2022/05/06 12:14:17;;;;;;;;;;;;;;;18.33;47.16;101020.48;105957;1270;25225;-64
2022/05/06 12:16:57;;;;;;;;;;;;;;;18.36;46.31;101011.69;105877;1271;23929;-64
2022/05/06 12:19:37;;;;;;;;;;;;;;;18.39;46.89;101009.01;106040;1270;25276;-64
2022/05/06 12:22:10;;;;;;;;;;;;;;;18.43;46.89;101011.19;105723;1271;22720;-64
2022/05/06 12:24:40;;;;;;;;;;;;;;;18.48;46.51;101012.38;106044;1271;22666;-64
2022/05/06 12:27:10;;;;;;;;;;;;;;;18.46;46.16;101011.14;105984;1271;25337;-64
2022/05/06 12:29:41;;;;;;;;;;;;;;;18.44;46.23;101011.70;106234;1271;22589;-64
2022/05/06 12:32:11;;;;;;;;;;;;;;;18.35;45.16;101015.48;105992;1271;25971;-64
2022/05/06 12:34:41;;;;;;;;;;;;;;;18.26;45.37;101014.98;106011;1271;24244;-64
2022/05/06 12:37:11;;;;;;;;;;;;;;;18.25;45.14;101019.96;106100;1270;25349;-64
2022/05/06 12:39:41;;;;;;;;;;;;;;;18.21;45.56;101014.40;106161;1270;23215;-64
2022/05/06 12:42:16;;;;;;;;;;;;;;;18.23;45.63;101012.56;106047;1271;22501;-64
2022/05/06 12:44:47;;;;;;;;;;;;;;;18.23;44.78;101006.86;106056;1271;22589;-64
2022/05/06 12:50:02;;;;;;;;;;;;;;;18.28;45.84;100998.98;106038;1270;22521;-65
2022/05/06 12:52:33;;;;;;;;;;;;;;;18.33;46.11;101005.83;106036;1271;24438;-65
2022/05/06 12:55:03;;;;;;;;;;;;;;;18.43;46.23;101000.65;105960;1271;22601;-64
2022/05/06 12:57:34;;;;;;;;;;;;;;;18.48;45.40;101005.27;105876;1273;24384;-65
2022/05/06 13:00:05;;;;;;;;;;;;;;;18.48;45.04;101001.48;105837;1272;22608;-64
2022/05/06 13:02:35;;;;;;;;;;;;;;;18.54;45.29;100997.46;106114;1271;22694;-65
2022/05/06 13:05:05;;;;;;;;;;;;;;;18.61;44.92;100989.02;106007;1271;24449;-63
2022/05/06 13:07:35;;;;;;;;;;;;;;;18.68;45.01;100996.05;106248;1270;25308;-65
2022/05/06 13:10:06;;;;;;;;;;;;;;;18.72;45.22;100996.86;105928;1271;22935;-64
2022/05/06 13:12:36;;;;;;;;;;;;;;;18.72;44.54;100990.16;106092;1271;24219;-65
2022/05/06 13:15:07;;;;;;;;;;;;;;;18.71;44.36;100987.77;106134;1270;22522;-64
2022/05/06 13:17:37;;;;;;;;;;;;;;;18.69;44.87;100989.15;105889;1271;25454;-64
2022/05/06 13:20:08;;;;;;;;;;;;;;;18.68;44.18;100992.19;106086;1270;22543;-64
2022/05/06 13:22:40;;;;;;;;;;;;;;;18.65;44.11;100984.69;106071;1270;22648;-65
2022/05/06 13:25:10;;;;;;;;;;;;;;;18.67;44.87;100980.56;106003;1270;25455;-65
2022/05/06 13:27:42;;;;;;;;;;;;;;;18.72;44.34;100981.02;106069;1271;22506;-65
2022/05/06 13:30:12;;;;;;;;;;;;;;;18.75;44.17;100982.39;105877;1270;22612;-64